Airfield :







YOU CAN JOIN US ON...

 
LOGIN :

Register | Disclaimer

   EN    FR    IT 

 









Legend :    VFR   Marginal VFR   IFR   Intensive IFR   Very Intensive IFR
Visi :
Ceiling :
>= 8 km
>= 3000ft
5 to 8 km
1000 to 3000 ft
1500m to 5 km
500 to 1000 ft
800 to 1500m
200 to 500 ft
< 800m
< 200 ft
Symbols :   Thunderstorms  Fog  Heavy snow  Heavy precipitations  Wind > 20 kt






- Airport Elevation : 110 ft
- IATA code : YFB


CYFB - Iqaluit

CURRENT METAR :
  • 202200Z 35008KT 30SM FEW190 BKN250 M00/M03 A2982 RMK CC2CS4 SLP103

EXPIRED METARs :
  • 202100Z 35007KT 30SM FEW020 FEW190 BKN250 01/M04 A2983 RMK SC1CC2CS4 SC TR SLP106
  • 202000Z 34011KT 30SM FEW020 BKN200 01/M03 A2984 RMK SC1CS7 SC TR SLP108

TAF TAF CYFB
Valid from the 20 at 18:00 until the 21 at 18:00 UTC


201738Z 2018/2118 34012KT P6SM FEW020
FM202100 34010KT P6SM SCT020 BKN030
TEMPO 2021/2103 BKN020
BECMG 2022/2024 VRB03KT
FM210300 10008KT P6SM SCT020 BKN090
TEMPO 2103/2106 P6SM -SN BKN020 OVC040
FM210600 13012KT 2SM -SN BKN006 OVC020
TEMPO 2106/2115 P6SM NSW SCT005 OVC025
FM211500 11010KT P6SM SCT010 BKN040
TEMPO 2115/2118 P6SM -RASN BKN010
BECMG 2116/2118 32005KT RMK NXT FCST BY 210000Z
CZUL FIR / North America



MET'MAP, your aeronautical weather chart ! - Copyright ORBIFLY December 2007 - Disclaimer

ORBIFLY MET'MAP TEAM :

Programming & Development : Alexandra Zaïnal
Concept & original design : Baudouin d'Aumeries
Assistance for programming : Marc-Olivier Méhu
Technical & hardware support : Manuel Goepfert

Contact : metmap@orbifly.com




SOURCES & CREDITS :

   NOAA